Kirkland, WA

6:33 PM PST on February 12, 2016 (GMT -0800)
West of Market | | Change Station
CLOSE
Current Station
Personal Weather Station
Location: Kirkland, WA
Elevation: 110 ft
Nearby Weather Stations

Elev 110 ft 47.69 °N, 122.21 °W | Updated 4 seconds ago

Partly Cloudy
Partly Cloudy
52.9 °F
Feels Like 52.9 °F
N
0.0
Wind Variable Wind from SSE
Gusts 7.0 mph

Today
High -- | Low -- °F
--% Chance of Precip.
Yesterday
High -- | Low -- °F
Precip. -- in
Pressure 30.15 in
Visibility 10.0 miles
Clouds Scattered Clouds 3500 ft
Mostly Cloudy 8000 ft
Dew Point 47 °F
Humidity 80%
Rainfall 0.25 in
Snow Depth Not available.
7:20 AM 5:26 PM
Waxing Crescent, 26% visible
METAR KBFI 130153Z 20005KT 10SM SCT035 BKN080 13/06 A3015 RMK AO2 SLP208 T01280061
Pressure 30.15 in
Visibility 10.0 miles
Clouds Scattered Clouds 3500 ft
Mostly Cloudy 8000 ft
Dew Point 47 °F
Humidity 80%
Rainfall 0.25 in
Snow Depth Not available.
7:20 AM 5:26 PM
Waxing Crescent, 26% visible
METAR KBFI 130153Z 20005KT 10SM SCT035 BKN080 13/06 A3015 RMK AO2 SLP208 T01280061

10-Day Weather Forecast

Almanac

Astronomy

Feb. 12, 2016 Rise Set
Actual Time
Civil Twilight
Nautical Twilight
Astronomical Twilight
Moon
Length of Visible Light
Length of Day
Tomorrow will be .
, % of the Moon is Illuminated

Today's Extremes

State Highs State Lows

Community

WunderPhotos

Upload Photos

1,892,464 photos uploaded!

WunderBlog® & News

Nearby

Air Quality

  Air Quality AQ Index Pollutant
Not available.

Snow Depth

Station Depth Elevation

Earthquake Activity

City Distance Mag. Time & Date
Minimum magnitude displayed is 2.5.

Coastal Water Temperatures

Place Temperature

Stations

Nearby Weather Stations

Station Location Temp. Windchill Dew Point Humidity Wind Precip. Elev Updated Type
                   

Watches & Warnings

There are currently no watches in effect.